createdAt,value
2023-01-11T00:00:01.180Z,2.60
2023-01-11T00:05:00.541Z,1.90
2023-01-11T00:10:00.565Z,2.80
2023-01-11T00:15:00.538Z,2.60
2023-01-11T00:20:00.549Z,2.70
2023-01-11T00:25:00.584Z,2.70
2023-01-11T00:30:00.492Z,2.70
2023-01-11T00:35:00.507Z,2.40
2023-01-11T00:40:00.695Z,2.90
2023-01-11T00:45:00.519Z,2.40
2023-01-11T00:50:00.822Z,2.60
2023-01-11T00:55:00.624Z,2.70
2023-01-11T01:00:01.164Z,3.10
2023-01-11T01:05:00.553Z,2.90
2023-01-11T01:10:00.511Z,2.40
2023-01-11T01:15:01.423Z,2.90
2023-01-11T01:20:00.500Z,2.40
2023-01-11T01:25:00.706Z,2.70
2023-01-11T01:30:00.521Z,2.40
2023-01-11T01:35:00.526Z,2.30
2023-01-11T01:40:00.519Z,2.40
2023-01-11T01:45:03.792Z,2.30
2023-01-11T01:50:05.471Z,2.80
2023-01-11T01:55:05.744Z,2.60
2023-01-11T02:00:06.356Z,2.00
2023-01-11T02:05:00.696Z,1.80
2023-01-11T02:10:03.865Z,2.50
2023-01-11T02:15:02.224Z,2.50
2023-01-11T02:20:07.285Z,2.40
2023-01-11T02:25:20.388Z,2.90
2023-01-11T02:30:15.502Z,3.10
2023-01-11T02:35:13.705Z,2.80
2023-01-11T02:40:16.105Z,3.30
2023-01-11T02:45:11.455Z,2.70
2023-01-11T02:50:08.963Z,2.80
2023-01-11T02:55:03.105Z,2.70
2023-01-11T03:00:02.511Z,2.80
2023-01-11T03:05:00.494Z,2.70
2023-01-11T03:10:16.180Z,3.10
2023-01-11T03:15:08.810Z,3.40
2023-01-11T03:20:08.647Z,3.00
2023-01-11T03:25:10.440Z,3.00
2023-01-11T03:30:06.061Z,3.20
2023-01-11T03:35:12.022Z,2.60
2023-01-11T03:40:07.795Z,3.40
2023-01-11T03:45:02.470Z,2.70
2023-01-11T03:50:05.686Z,3.50
2023-01-11T03:55:03.308Z,4.50
2023-01-11T04:00:01.812Z,4.20
2023-01-11T04:05:02.005Z,4.00
2023-01-11T04:10:00.691Z,3.90
2023-01-11T04:15:00.577Z,4.30
2023-01-11T04:20:00.582Z,3.70
2023-01-11T04:25:00.529Z,4.00
2023-01-11T04:30:00.677Z,3.40
2023-01-11T04:35:00.478Z,4.00
2023-01-11T04:40:00.548Z,3.70
2023-01-11T04:45:00.524Z,3.70
2023-01-11T04:50:00.654Z,4.10
2023-01-11T04:55:00.481Z,2.60
2023-01-11T05:00:01.184Z,2.60
2023-01-11T05:05:00.518Z,2.50
2023-01-11T05:10:01.068Z,2.80
2023-01-11T05:15:00.553Z,3.00
2023-01-11T05:20:00.525Z,2.70
2023-01-11T05:25:00.586Z,2.30
2023-01-11T05:30:00.549Z,2.70
2023-01-11T05:35:00.533Z,2.40
2023-01-11T05:40:00.543Z,2.50
2023-01-11T05:45:00.513Z,1.90
2023-01-11T05:50:00.569Z,1.70
2023-01-11T05:55:00.507Z,2.00
2023-01-11T06:00:02.550Z,2.30
2023-01-11T06:05:00.967Z,2.80
2023-01-11T06:10:00.560Z,2.70
2023-01-11T06:15:00.561Z,2.70
2023-01-11T06:20:00.522Z,1.90
2023-01-11T06:25:00.553Z,2.20
2023-01-11T06:30:00.600Z,2.10
2023-01-11T06:35:00.512Z,1.40
2023-01-11T06:40:00.600Z,1.70
2023-01-11T06:45:00.563Z,1.70
2023-01-11T06:50:00.541Z,1.80
2023-01-11T06:55:00.521Z,2.00
2023-01-11T07:00:01.374Z,1.80
2023-01-11T07:05:00.581Z,2.30
2023-01-11T07:10:00.575Z,1.70
2023-01-11T07:15:01.184Z,1.50
2023-01-11T07:20:01.105Z,1.70
2023-01-11T07:25:00.998Z,2.30
2023-01-11T07:30:00.829Z,1.40
2023-01-11T07:35:00.524Z,1.50
2023-01-11T07:40:00.562Z,2.20
2023-01-11T07:45:00.682Z,2.20
2023-01-11T07:50:00.708Z,2.40
2023-01-11T07:55:00.604Z,2.80
2023-01-11T08:00:02.328Z,2.20
2023-01-11T08:05:02.983Z,1.90
2023-01-11T08:10:00.634Z,1.60
2023-01-11T08:15:00.549Z,2.80
2023-01-11T08:20:00.671Z,1.60
2023-01-11T08:25:00.607Z,2.30
2023-01-11T08:30:00.562Z,2.20
2023-01-11T08:35:00.528Z,1.60
2023-01-11T08:40:00.685Z,1.60
2023-01-11T08:45:00.503Z,1.70
2023-01-11T10:18:33.348Z,2.10
2023-01-11T10:20:15.235Z,2.20
2023-01-11T10:25:12.792Z,2.00
2023-01-11T10:30:07.421Z,1.60
2023-01-11T10:35:13.056Z,1.80
2023-01-11T10:40:07.577Z,2.50
2023-01-11T10:45:05.805Z,1.80
2023-01-11T10:50:12.434Z,2.30
2023-01-11T10:55:11.848Z,2.50
2023-01-11T11:00:18.052Z,2.80
2023-01-11T11:05:09.858Z,1.80
2023-01-11T11:10:11.544Z,1.80
2023-01-11T11:15:17.303Z,1.90
2023-01-11T11:20:19.446Z,2.20
2023-01-11T11:25:06.561Z,2.30
2023-01-11T11:30:00.539Z,2.10
2023-01-11T11:35:00.814Z,1.90
2023-01-11T11:40:01.064Z,2.10
2023-01-11T11:45:12.267Z,2.20
2023-01-11T11:50:27.379Z,2.00
2023-01-11T11:55:06.416Z,2.00
2023-01-11T12:00:07.021Z,2.30
2023-01-11T12:05:06.960Z,3.20
2023-01-11T12:10:07.802Z,2.50
2023-01-11T12:15:11.482Z,2.30
2023-01-11T12:20:00.651Z,1.80
2023-01-11T12:25:02.599Z,2.00
2023-01-11T12:30:12.765Z,2.00
2023-01-11T12:35:17.485Z,2.00
2023-01-11T12:40:15.471Z,1.80
2023-01-11T12:45:13.870Z,2.20
2023-01-11T12:50:08.183Z,2.10
2023-01-11T12:55:11.476Z,2.10
2023-01-11T13:00:08.994Z,2.10
2023-01-11T13:05:13.307Z,2.80
2023-01-11T13:10:20.419Z,2.60
2023-01-11T13:15:03.767Z,2.50
2023-01-11T13:20:11.575Z,1.90
2023-01-11T13:25:03.473Z,1.60
2023-01-11T13:30:01.741Z,2.10
2023-01-11T13:35:06.072Z,1.30
2023-01-11T13:40:17.096Z,2.10
2023-01-11T13:45:05.697Z,2.10
2023-01-11T13:50:10.490Z,2.20
2023-01-11T13:55:24.848Z,1.80
2023-01-11T14:00:08.841Z,1.70
2023-01-11T14:05:11.114Z,1.80
2023-01-11T14:10:11.478Z,1.90
2023-01-11T14:15:15.460Z,1.80
2023-01-11T14:20:00.565Z,2.60
2023-01-11T14:25:07.950Z,2.10
2023-01-11T14:30:19.436Z,1.70
2023-01-11T14:35:13.743Z,1.70
2023-01-11T14:40:13.744Z,1.80
2023-01-11T14:45:11.972Z,2.00
2023-01-11T14:50:13.851Z,1.80
2023-01-11T14:55:04.571Z,2.40
2023-01-11T15:00:03.439Z,2.60
2023-01-11T15:05:03.935Z,3.30
2023-01-11T15:10:03.234Z,2.40
2023-01-11T15:15:12.628Z,2.40
2023-01-11T15:20:15.084Z,1.80
2023-01-11T15:25:03.801Z,1.90
2023-01-11T15:30:01.987Z,1.90
2023-01-11T15:35:20.465Z,2.30
2023-01-11T15:40:04.795Z,1.60
2023-01-11T15:45:10.452Z,2.20
2023-01-11T15:50:11.471Z,2.10
2023-01-11T15:55:16.426Z,1.80
2023-01-11T16:00:10.591Z,2.30
2023-01-11T16:05:10.460Z,2.70
2023-01-11T16:10:12.339Z,1.70
2023-01-11T16:15:17.256Z,1.40
2023-01-11T16:20:20.408Z,2.20
2023-01-11T16:25:01.000Z,1.50
2023-01-11T16:30:00.993Z,1.80
2023-01-11T16:35:02.529Z,1.60
2023-01-11T16:40:09.116Z,1.30
2023-01-11T16:45:05.698Z,1.50
2023-01-11T16:50:13.732Z,1.70
2023-01-11T16:55:02.746Z,1.50
2023-01-11T17:00:05.514Z,1.80
2023-01-11T17:05:00.530Z,1.00
2023-01-11T17:10:14.373Z,1.40
2023-01-11T17:15:20.526Z,1.20
2023-01-11T17:20:00.681Z,1.50
2023-01-11T17:25:04.456Z,1.30
2023-01-11T17:30:03.030Z,1.30
2023-01-11T17:35:04.059Z,1.80
2023-01-11T17:40:01.423Z,1.90
2023-01-11T17:45:09.094Z,1.60
2023-01-11T17:50:02.152Z,1.80
2023-01-11T17:55:12.067Z,1.40
2023-01-11T18:00:20.532Z,2.00
2023-01-11T18:05:00.831Z,1.60
2023-01-11T18:10:03.263Z,2.80
2023-01-11T18:15:04.441Z,2.20
2023-01-11T18:20:13.246Z,1.70
2023-01-11T18:25:11.192Z,2.50
2023-01-11T18:30:04.755Z,2.10
2023-01-11T18:35:00.544Z,2.00
2023-01-11T18:40:00.673Z,1.60
2023-01-11T18:45:00.701Z,2.50
2023-01-11T18:50:00.573Z,1.70
2023-01-11T18:55:00.617Z,1.90
2023-01-11T19:00:03.050Z,1.90
2023-01-11T19:05:00.538Z,2.00
2023-01-11T19:10:00.585Z,2.30
2023-01-11T19:15:00.525Z,1.20
2023-01-11T19:20:00.631Z,1.60
2023-01-11T19:25:00.596Z,1.60
2023-01-11T19:30:00.567Z,1.20
2023-01-11T19:35:00.492Z,1.40
2023-01-11T19:40:00.545Z,1.80
2023-01-11T19:45:00.528Z,1.50
2023-01-11T19:50:00.532Z,2.20
2023-01-11T19:55:00.570Z,1.80
2023-01-11T20:00:03.316Z,1.60
2023-01-11T20:05:00.577Z,1.90
2023-01-11T20:10:00.722Z,1.70
2023-01-11T20:15:00.537Z,2.00
2023-01-11T20:20:00.545Z,2.00
2023-01-11T20:25:00.679Z,1.40
2023-01-11T20:30:00.635Z,2.10
2023-01-11T20:35:00.559Z,1.80
2023-01-11T20:40:00.546Z,3.20
2023-01-11T20:45:00.515Z,1.60
2023-01-11T20:50:00.545Z,1.80
2023-01-11T20:55:00.613Z,2.10
2023-01-11T21:00:03.876Z,2.30
2023-01-11T21:05:00.741Z,2.10
2023-01-11T21:10:00.547Z,2.40
2023-01-11T21:15:00.541Z,2.30
2023-01-11T21:20:00.533Z,2.20
2023-01-11T21:25:00.510Z,1.70
2023-01-11T21:30:00.626Z,2.10
2023-01-11T21:35:00.505Z,3.00
2023-01-11T21:40:00.556Z,1.50
2023-01-11T21:45:00.533Z,1.70
2023-01-11T21:50:00.635Z,2.10
2023-01-11T21:55:00.555Z,1.90
2023-01-11T22:00:03.450Z,1.40
2023-01-11T22:05:00.545Z,1.60
2023-01-11T22:10:04.966Z,1.50
2023-01-11T22:15:00.537Z,1.70
2023-01-11T22:20:00.511Z,1.90
2023-01-11T22:25:00.674Z,1.70
2023-01-11T22:30:00.653Z,1.10
2023-01-11T22:35:00.690Z,1.20
2023-01-11T22:40:01.656Z,1.40
2023-01-11T22:45:00.580Z,1.60
2023-01-11T22:50:00.520Z,1.50
2023-01-11T22:55:00.951Z,1.50
2023-01-11T23:00:00.877Z,1.20
2023-01-11T23:05:00.634Z,1.20
2023-01-11T23:10:00.542Z,0.80
2023-01-11T23:15:00.548Z,1.20
2023-01-11T23:20:00.495Z,1.20
2023-01-11T23:25:00.523Z,1.00
2023-01-11T23:30:00.590Z,1.10
2023-01-11T23:35:00.833Z,1.00
2023-01-11T23:40:00.519Z,1.20
2023-01-11T23:45:00.528Z,1.00
2023-01-11T23:50:00.569Z,1.30
2023-01-11T23:55:00.506Z,1.70
